Time,TemperatureF,DewpointF,PressureIn,WindDirection,WindDirectionDegrees,WindSpeedMPH,WindSpeedGustMPH,Humidity,HourlyPrecipIn,Conditions,Clouds,dailyrainin,SoftwareType,DateUTC
2013-12-16 00:21:00,16.0,11.0,30.48,NW,326,2.0,-999.0,82,-99.99,,,-99.99,,2013-12-16 07:21:00,
2013-12-16 00:42:00,15.0,11.0,30.49,NW,326,1.0,-999.0,82,-99.99,,,-99.99,,2013-12-16 07:42:00,
2013-12-16 00:52:00,15.0,11.0,30.47,NW,326,3.0,-999.0,83,-99.99,,,-99.99,,2013-12-16 07:52:00,
2013-12-16 01:11:00,16.0,12.0,30.48,NW,326,1.0,-999.0,83,-99.99,,,-99.99,,2013-12-16 08:11:00,
2013-12-16 01:22:00,16.0,12.0,30.47,NW,326,1.0,-999.0,84,-99.99,,,-99.99,,2013-12-16 08:22:00,
2013-12-16 01:42:00,16.0,12.0,30.46,NW,326,0.0,-999.0,84,-99.99,,,-99.99,,2013-12-16 08:42:00,
2013-12-16 01:52:00,17.0,13.0,30.46,NW,326,2.0,-999.0,84,-99.99,,,-99.99,,2013-12-16 08:52:00,
2013-12-16 02:11:00,16.0,12.0,30.45,NW,326,1.0,-999.0,84,-99.99,,,-99.99,,2013-12-16 09:11:00,
2013-12-16 02:21:00,15.0,11.0,30.46,NW,326,1.0,-999.0,83,-99.99,,,-99.99,,2013-12-16 09:21:00,
2013-12-16 02:43:00,15.0,11.0,30.46,NW,326,2.0,-999.0,84,-99.99,,,-99.99,,2013-12-16 09:43:00,
2013-12-16 02:53:00,15.0,11.0,30.45,NW,326,2.0,-999.0,84,-99.99,,,-99.99,,2013-12-16 09:53:00,
2013-12-16 03:12:00,15.0,11.0,30.45,NW,326,2.0,-999.0,84,-99.99,,,-99.99,,2013-12-16 10:12:00,
2013-12-16 03:23:00,15.0,11.0,30.45,NW,326,0.0,-999.0,84,-99.99,,,-99.99,,2013-12-16 10:23:00,
2013-12-16 03:42:00,16.0,12.0,30.45,NW,326,2.0,-999.0,84,-99.99,,,-99.99,,2013-12-16 10:42:00,
2013-12-16 03:52:00,16.0,12.0,30.43,NW,326,2.0,-999.0,84,-99.99,,,-99.99,,2013-12-16 10:52:00,
2013-12-16 04:12:00,15.0,11.0,30.43,NW,326,2.0,-999.0,84,-99.99,,,-99.99,,2013-12-16 11:12:00,
2013-12-16 04:22:00,14.0,10.0,30.43,NW,326,3.0,-999.0,84,-99.99,,,-99.99,,2013-12-16 11:22:00,
2013-12-16 04:42:00,14.0,10.0,30.42,NW,326,2.0,-999.0,84,-99.99,,,-99.99,,2013-12-16 11:42:00,
2013-12-16 04:52:00,14.0,10.0,30.44,NW,326,2.0,-999.0,84,-99.99,,,-99.99,,2013-12-16 11:52:00,
2013-12-16 05:12:00,14.0,10.0,30.44,NW,326,1.0,-999.0,84,-99.99,,,-99.99,,2013-12-16 12:12:00,
2013-12-16 05:21:00,14.0,10.0,30.44,NW,326,1.0,-999.0,84,-99.99,,,-99.99,,2013-12-16 12:21:00,
2013-12-16 05:42:00,15.0,11.0,30.44,NW,326,0.0,-999.0,84,-99.99,,,-99.99,,2013-12-16 12:42:00,
2013-12-16 05:52:00,15.0,11.0,30.47,NW,326,0.0,-999.0,84,-99.99,,,-99.99,,2013-12-16 12:52:00,
2013-12-16 06:11:00,14.0,10.0,30.47,NW,326,0.0,-999.0,84,-99.99,,,-99.99,,2013-12-16 13:11:00,
2013-12-16 06:21:00,14.0,10.0,30.47,NW,326,0.0,-999.0,83,-99.99,,,-99.99,,2013-12-16 13:21:00,
2013-12-16 06:41:00,13.0,9.0,30.48,NW,326,0.0,-999.0,84,-99.99,,,-99.99,,2013-12-16 13:41:00,
2013-12-16 06:52:00,13.0,9.0,30.52,NW,326,0.0,-999.0,84,-99.99,,,-99.99,,2013-12-16 13:52:00,
2013-12-16 07:11:00,12.0,8.0,30.54,NW,326,0.0,-999.0,84,-99.99,,,-99.99,,2013-12-16 14:11:00,
2013-12-16 07:22:00,12.0,8.0,30.54,NW,326,0.0,-999.0,84,-99.99,,,-99.99,,2013-12-16 14:22:00,
2013-12-16 07:42:00,12.0,8.0,30.54,NW,326,0.0,-999.0,84,-99.99,,,-99.99,,2013-12-16 14:42:00,
2013-12-16 07:52:00,13.0,9.0,30.59,NW,326,2.0,-999.0,84,-99.99,,,-99.99,,2013-12-16 14:52:00,
2013-12-16 08:11:00,13.0,9.0,30.60,NW,326,0.0,-999.0,84,-99.99,,,-99.99,,2013-12-16 15:11:00,
2013-12-16 08:21:00,14.0,10.0,30.58,NW,326,2.0,-999.0,84,-99.99,,,-99.99,,2013-12-16 15:21:00,
2013-12-16 08:43:00,16.0,12.0,30.59,NNW,344,3.0,-999.0,84,-99.99,,,-99.99,,2013-12-16 15:43:00,
2013-12-16 08:54:00,19.0,15.0,30.58,NNW,344,4.0,-999.0,84,-99.99,,,-99.99,,2013-12-16 15:54:00,
2013-12-16 09:13:00,22.0,17.0,30.56,NNW,344,2.0,-999.0,82,-99.99,,,-99.99,,2013-12-16 16:13:00,
2013-12-16 09:23:00,24.0,18.0,30.56,NNW,344,0.0,-999.0,79,-99.99,,,-99.99,,2013-12-16 16:23:00,
2013-12-16 09:43:00,26.0,19.0,30.55,NNW,344,0.0,-999.0,76,-99.99,,,-99.99,,2013-12-16 16:43:00,
2013-12-16 09:52:00,27.0,19.0,30.53,NNW,344,0.0,-999.0,72,-99.99,,,-99.99,,2013-12-16 16:52:00,
2013-12-16 10:11:00,27.0,19.0,30.54,SW,229,1.0,-999.0,70,-99.99,,,-99.99,,2013-12-16 17:11:00,
2013-12-16 10:22:00,28.0,19.0,30.54,South,187,0.0,-999.0,68,-99.99,,,-99.99,,2013-12-16 17:22:00,
2013-12-16 10:52:00,31.0,20.0,30.53,South,189,2.0,-999.0,63,-99.99,,,-99.99,,2013-12-16 17:52:00,
2013-12-16 11:12:00,32.0,20.0,30.52,SSW,204,2.0,-999.0,61,-99.99,,,-99.99,,2013-12-16 18:12:00,
2013-12-16 11:22:00,33.0,20.0,30.51,SW,218,3.0,-999.0,59,-99.99,,,-99.99,,2013-12-16 18:22:00,
2013-12-16 11:42:00,34.0,20.0,30.50,WSW,249,1.0,-999.0,56,-99.99,,,-99.99,,2013-12-16 18:42:00,
2013-12-16 11:52:00,34.0,20.0,30.50,WSW,243,2.0,-999.0,55,-99.99,,,-99.99,,2013-12-16 18:52:00,
2013-12-16 12:11:00,35.0,20.0,30.49,SSW,204,2.0,-999.0,54,-99.99,,,-99.99,,2013-12-16 19:11:00,
2013-12-16 12:21:00,36.0,20.0,30.45,WNW,283,1.0,-999.0,51,-99.99,,,-99.99,,2013-12-16 19:21:00,
2013-12-16 12:42:00,37.0,20.0,30.45,SW,221,2.0,-999.0,50,-99.99,,,-99.99,,2013-12-16 19:42:00,
2013-12-16 12:52:00,38.0,20.0,30.43,SW,229,1.0,-999.0,48,-99.99,,,-99.99,,2013-12-16 19:52:00,
2013-12-16 13:11:00,39.0,21.0,30.42,WSW,238,2.0,-999.0,48,-99.99,,,-99.99,,2013-12-16 20:11:00,
2013-12-16 13:21:00,39.0,19.0,30.40,SSW,211,1.0,-999.0,45,-99.99,,,-99.99,,2013-12-16 20:21:00,
2013-12-16 13:42:00,40.0,20.0,30.40,SSW,210,1.0,-999.0,45,-99.99,,,-99.99,,2013-12-16 20:42:00,
2013-12-16 13:53:00,40.0,19.0,30.39,South,191,2.0,-999.0,43,-99.99,,,-99.99,,2013-12-16 20:53:00,
2013-12-16 14:21:00,41.0,20.0,30.37,SSW,201,3.0,-999.0,43,-99.99,,,-99.99,,2013-12-16 21:21:00,
2013-12-16 14:43:00,41.0,20.0,30.37,SSW,198,3.0,-999.0,43,-99.99,,,-99.99,,2013-12-16 21:43:00,
2013-12-16 14:54:00,42.0,21.0,30.37,WSW,240,4.0,-999.0,42,-99.99,,,-99.99,,2013-12-16 21:54:00,
2013-12-16 15:13:00,41.0,20.0,30.37,WSW,248,6.0,-999.0,43,-99.99,,,-99.99,,2013-12-16 22:13:00,
2013-12-16 15:22:00,40.0,20.0,30.39,SW,219,7.0,-999.0,45,-99.99,,,-99.99,,2013-12-16 22:22:00,
2013-12-16 15:43:00,41.0,21.0,30.39,SSW,212,6.0,-999.0,44,-99.99,,,-99.99,,2013-12-16 22:43:00,
2013-12-16 15:53:00,40.0,20.0,30.39,SSW,204,6.0,-999.0,45,-99.99,,,-99.99,,2013-12-16 22:53:00,
2013-12-16 16:12:00,40.0,20.0,30.39,SW,231,6.0,-999.0,45,-99.99,,,-99.99,,2013-12-16 23:12:00,
2013-12-16 16:22:00,41.0,21.0,30.39,SW,233,5.0,-999.0,45,-99.99,,,-99.99,,2013-12-16 23:22:00,
2013-12-16 16:42:00,41.0,21.0,30.39,SW,216,1.0,-999.0,44,-99.99,,,-99.99,,2013-12-16 23:42:00,
2013-12-16 16:53:00,41.0,21.0,30.39,SW,216,0.0,-999.0,44,-99.99,,,-99.99,,2013-12-16 23:53:00,
2013-12-16 17:11:00,39.0,20.0,30.40,WSW,238,3.0,-999.0,47,-99.99,,,-99.99,,2013-12-17 00:11:00,
2013-12-16 17:21:00,37.0,20.0,30.42,WSW,238,0.0,-999.0,49,-99.99,,,-99.99,,2013-12-17 00:21:00,
2013-12-16 17:42:00,35.0,19.0,30.43,WSW,238,0.0,-999.0,52,-99.99,,,-99.99,,2013-12-17 00:42:00,
2013-12-16 17:52:00,34.0,19.0,30.46,WSW,238,0.0,-999.0,54,-99.99,,,-99.99,,2013-12-17 00:52:00,
2013-12-16 18:11:00,34.0,20.0,30.46,WSW,239,0.0,-999.0,56,-99.99,,,-99.99,,2013-12-17 01:11:00,
2013-12-16 18:22:00,33.0,19.0,30.46,WSW,239,0.0,-999.0,55,-99.99,,,-99.99,,2013-12-17 01:22:00,
2013-12-16 18:42:00,30.0,18.0,30.49,WSW,239,0.0,-999.0,60,-99.99,,,-99.99,,2013-12-17 01:42:00,
2013-12-16 18:52:00,28.0,18.0,30.52,WSW,239,1.0,-999.0,65,-99.99,,,-99.99,,2013-12-17 01:52:00,
2013-12-16 19:22:00,25.0,16.0,30.55,WSW,257,3.0,-999.0,68,-99.99,,,-99.99,,2013-12-17 02:22:00,
2013-12-16 19:52:00,23.0,15.0,30.55,WNW,295,3.0,-999.0,72,-99.99,,,-99.99,,2013-12-17 02:52:00,
2013-12-16 21:23:00,20.0,15.0,30.52,WNW,303,2.0,-999.0,79,-99.99,,,-99.99,,2013-12-17 04:23:00,
2013-12-16 21:43:00,21.0,16.0,30.48,NNW,338,2.0,-999.0,80,-99.99,,,-99.99,,2013-12-17 04:43:00,
2013-12-16 21:53:00,21.0,16.0,30.49,NNW,343,3.0,-999.0,80,-99.99,,,-99.99,,2013-12-17 04:53:00,
2013-12-16 22:11:00,21.0,16.0,30.49,NNW,343,1.0,-999.0,80,-99.99,,,-99.99,,2013-12-17 05:11:00,
2013-12-16 22:22:00,20.0,15.0,30.51,NNW,343,3.0,-999.0,80,-99.99,,,-99.99,,2013-12-17 05:22:00,
2013-12-16 22:42:00,20.0,15.0,30.49,NNW,343,2.0,-999.0,81,-99.99,,,-99.99,,2013-12-17 05:42:00,
2013-12-16 22:52:00,20.0,15.0,30.48,NNW,343,1.0,-999.0,82,-99.99,,,-99.99,,2013-12-17 05:52:00,
2013-12-16 23:11:00,20.0,15.0,30.48,NNW,343,1.0,-999.0,81,-99.99,,,-99.99,,2013-12-17 06:11:00,
2013-12-16 23:22:00,19.0,14.0,30.50,NNW,343,2.0,-999.0,81,-99.99,,,-99.99,,2013-12-17 06:22:00,
2013-12-16 23:42:00,19.0,14.0,30.47,NNW,343,3.0,-999.0,82,-99.99,,,-99.99,,2013-12-17 06:42:00,
2013-12-16 23:52:00,19.0,15.0,30.48,NNW,343,3.0,-999.0,83,-99.99,,,-99.99,,2013-12-17 06:52:00,